createdAt,value
2023-10-23T00:01:21.744Z,15.48
2023-10-23T00:03:48.684Z,14.73
2023-10-23T00:06:15.570Z,16.10
2023-10-23T00:08:42.770Z,14.85
2023-10-23T00:11:09.509Z,13.98
2023-10-23T00:13:36.174Z,14.43
2023-10-23T00:16:03.008Z,14.10
2023-10-23T00:18:29.791Z,12.65
2023-10-23T00:20:57.416Z,11.98
2023-10-23T00:23:24.159Z,13.20
2023-10-23T00:25:50.871Z,14.65
2023-10-23T00:28:17.575Z,13.82
2023-10-23T00:30:45.353Z,14.88
2023-10-23T00:33:12.313Z,14.88
2023-10-23T00:35:39.169Z,15.43
2023-10-23T00:38:06.451Z,13.55
2023-10-23T00:40:33.209Z,15.88
2023-10-23T00:43:12.506Z,13.23
2023-10-23T00:45:47.195Z,16.35
2023-10-23T00:48:14.074Z,15.18
2023-10-23T00:50:40.962Z,15.05
2023-10-23T00:53:08.068Z,15.80
2023-10-23T00:55:35.184Z,15.25
2023-10-23T00:58:01.874Z,15.98
2023-10-23T01:00:29.081Z,15.48
2023-10-23T01:02:55.984Z,14.95
2023-10-23T01:05:22.781Z,16.77
2023-10-23T01:07:50.501Z,14.90
2023-10-23T01:10:17.295Z,14.85
2023-10-23T01:12:44.040Z,14.82
2023-10-23T01:15:10.977Z,16.48
2023-10-23T01:17:37.674Z,12.50
2023-10-23T01:20:06.181Z,14.95
2023-10-23T01:22:32.878Z,13.93
2023-10-23T01:24:59.800Z,14.40
2023-10-23T01:27:26.651Z,15.80
2023-10-23T01:29:53.424Z,16.40
2023-10-23T01:32:20.093Z,15.85
2023-10-23T01:34:47.435Z,16.75
2023-10-23T01:37:14.183Z,17.08
2023-10-23T01:39:40.903Z,17.17
2023-10-23T01:42:07.752Z,16.48
2023-10-23T01:44:34.477Z,17.23
2023-10-23T01:47:01.191Z,16.98
2023-10-23T01:49:28.815Z,17.30
2023-10-23T01:51:56.282Z,17.02
2023-10-23T01:54:23.112Z,16.75
2023-10-23T01:56:49.783Z,13.25
2023-10-23T01:59:16.543Z,16.23
2023-10-23T02:01:43.243Z,16.27
2023-10-23T02:04:10.280Z,17.30
2023-10-23T02:06:37.157Z,17.63
2023-10-23T02:09:04.219Z,15.95
2023-10-23T02:11:30.898Z,16.92
2023-10-23T02:13:57.604Z,16.15
2023-10-23T02:16:24.365Z,16.30
2023-10-23T02:18:51.141Z,16.70
2023-10-23T02:21:17.920Z,15.88
2023-10-23T02:23:55.837Z,17.58
2023-10-23T02:26:23.740Z,16.85
2023-10-23T02:28:50.445Z,16.67
2023-10-23T02:31:17.218Z,15.90
2023-10-23T02:33:44.274Z,16.13
2023-10-23T02:36:11.003Z,15.73
2023-10-23T02:38:37.719Z,13.32
2023-10-23T02:41:04.386Z,15.63
2023-10-23T02:43:31.095Z,16.73
2023-10-23T02:46:05.741Z,14.57
2023-10-23T02:48:32.641Z,13.63
2023-10-23T02:50:59.668Z,16.77
2023-10-23T02:53:26.547Z,17.27
2023-10-23T02:55:53.197Z,15.45
2023-10-23T02:58:19.951Z,15.40
2023-10-23T03:00:46.803Z,12.60
2023-10-23T03:03:14.356Z,13.13
2023-10-23T03:05:41.152Z,16.17
2023-10-23T03:08:07.850Z,17.10
2023-10-23T03:10:34.964Z,17.92
2023-10-23T03:13:01.747Z,23.02
2023-10-23T03:15:28.594Z,21.65
2023-10-23T03:17:55.365Z,17.05
2023-10-23T03:20:22.055Z,20.75
2023-10-23T03:22:48.785Z,20.27
2023-10-23T03:25:15.518Z,20.90
2023-10-23T03:27:42.804Z,21.75
2023-10-23T03:30:09.958Z,24.25
2023-10-23T03:32:36.700Z,23.90
2023-10-23T03:35:04.566Z,24.33
2023-10-23T03:37:31.362Z,22.40
2023-10-23T03:39:58.055Z,25.27
2023-10-23T03:42:24.841Z,26.85
2023-10-23T03:44:51.699Z,24.52
2023-10-23T03:47:18.425Z,28.08
2023-10-23T03:49:45.199Z,26.65
2023-10-23T03:52:11.917Z,32.25
2023-10-23T03:54:39.510Z,31.58
2023-10-23T03:57:06.279Z,31.17
2023-10-23T03:59:33.026Z,30.20
2023-10-23T04:01:59.768Z,37.78
2023-10-23T04:04:26.568Z,34.75
2023-10-23T04:06:53.341Z,34.33
2023-10-23T04:09:20.150Z,39.08
2023-10-23T04:11:46.848Z,41.42
2023-10-23T04:14:13.599Z,41.70
2023-10-23T04:16:40.556Z,44.25
2023-10-23T04:19:07.293Z,42.42
2023-10-23T04:21:40.285Z,46.97
2023-10-23T04:24:08.285Z,44.92
2023-10-23T04:26:37.820Z,43.72
2023-10-23T04:29:05.503Z,44.03
2023-10-23T04:31:32.223Z,42.47
2023-10-23T04:33:59.045Z,40.13
2023-10-23T04:36:25.892Z,42.22
2023-10-23T04:38:52.627Z,40.65
2023-10-23T04:41:20.784Z,37.53
2023-10-23T04:43:47.790Z,36.65
2023-10-23T04:46:14.569Z,42.35
2023-10-23T04:48:41.305Z,33.63
2023-10-23T04:51:08.041Z,36.72
2023-10-23T04:53:34.754Z,43.38
2023-10-23T04:56:05.541Z,47.20
2023-10-23T04:58:32.500Z,45.83
2023-10-23T05:00:59.754Z,50.55
2023-10-23T05:03:26.639Z,47.45
2023-10-23T05:05:53.385Z,50.28
2023-10-23T05:08:20.109Z,46.35
2023-10-23T05:10:46.786Z,46.75
2023-10-23T05:13:13.485Z,47.67
2023-10-23T05:15:40.275Z,45.15
2023-10-23T05:18:07.119Z,44.92
2023-10-23T05:20:35.198Z,47.50
2023-10-23T05:23:01.971Z,44.78
2023-10-23T05:25:28.649Z,45.72
2023-10-23T05:27:55.440Z,48.50
2023-10-23T05:30:22.118Z,40.65
2023-10-23T05:32:48.945Z,41.88
2023-10-23T05:35:16.326Z,38.58
2023-10-23T05:37:43.060Z,38.60
2023-10-23T05:40:10.174Z,41.25
2023-10-23T05:42:36.889Z,38.90
2023-10-23T05:45:04.394Z,34.53
2023-10-23T05:47:31.397Z,33.45
2023-10-23T05:49:58.274Z,35.20
2023-10-23T05:52:24.954Z,35.65
2023-10-23T05:54:51.713Z,31.02
2023-10-23T05:57:18.417Z,31.98
2023-10-23T05:59:45.108Z,32.95
2023-10-23T06:02:14.815Z,32.50
2023-10-23T06:04:45.632Z,28.58
2023-10-23T06:07:13.608Z,29.20
2023-10-23T06:09:40.812Z,30.17
2023-10-23T06:12:08.059Z,28.25
2023-10-23T06:14:34.808Z,30.23
2023-10-23T06:17:01.516Z,28.40
2023-10-23T06:19:28.326Z,24.98
2023-10-23T06:21:55.057Z,24.75
2023-10-23T06:24:21.934Z,25.70
2023-10-23T06:26:48.617Z,23.50
2023-10-23T06:29:15.388Z,23.60
2023-10-23T06:31:42.130Z,26.75
2023-10-23T06:34:08.916Z,27.50
2023-10-23T06:36:36.835Z,29.45
2023-10-23T06:39:03.612Z,28.40
2023-10-23T06:41:31.662Z,24.38
2023-10-23T06:43:58.368Z,25.77
2023-10-23T06:46:25.202Z,26.38
2023-10-23T06:48:52.029Z,26.65
2023-10-23T06:51:18.801Z,27.08
2023-10-23T06:53:45.627Z,25.92
2023-10-23T06:56:12.425Z,25.63
2023-10-23T06:58:39.101Z,24.88
2023-10-23T07:01:08.726Z,24.85
2023-10-23T07:03:39.138Z,21.42
2023-10-23T07:06:07.342Z,20.52
2023-10-23T07:08:34.830Z,20.45
2023-10-23T07:11:01.646Z,20.05
2023-10-23T07:13:28.603Z,15.52
2023-10-23T07:15:55.400Z,19.20
2023-10-23T07:18:23.073Z,18.20
2023-10-23T07:20:57.372Z,20.48
2023-10-23T07:23:24.658Z,18.35
2023-10-23T07:26:15.696Z,16.20
2023-10-23T07:28:42.771Z,17.92
2023-10-23T07:31:10.831Z,17.95
2023-10-23T07:33:37.977Z,16.75
2023-10-23T07:36:05.521Z,17.25
2023-10-23T07:38:32.720Z,18.90
2023-10-23T07:40:59.668Z,17.80
2023-10-23T07:43:27.063Z,16.98
2023-10-23T07:46:04.120Z,12.93
2023-10-23T07:48:39.614Z,15.65
2023-10-23T07:51:06.513Z,15.93
2023-10-23T07:53:33.992Z,15.07
2023-10-23T07:56:01.184Z,14.98
2023-10-23T07:58:28.034Z,15.85
2023-10-23T08:01:08.490Z,15.27
2023-10-23T08:03:36.254Z,18.40
2023-10-23T08:06:07.563Z,18.23
2023-10-23T08:08:36.466Z,18.88
2023-10-23T08:11:04.961Z,19.60
2023-10-23T08:13:32.225Z,23.83
2023-10-23T08:16:00.790Z,17.58
2023-10-23T08:18:38.201Z,17.27
2023-10-23T08:21:13.442Z,20.02
2023-10-23T08:23:41.788Z,19.30
2023-10-23T08:26:08.577Z,18.92
2023-10-23T08:28:58.941Z,19.13
2023-10-23T08:31:37.194Z,18.70
2023-10-23T08:34:06.228Z,17.65
2023-10-23T08:36:34.111Z,20.52
2023-10-23T08:39:01.331Z,19.52
2023-10-23T08:41:28.294Z,17.75
2023-10-23T08:43:56.683Z,20.25
2023-10-23T08:46:28.362Z,19.08
2023-10-23T08:48:55.324Z,16.25
2023-10-23T08:51:22.268Z,12.63
2023-10-23T08:56:27.190Z,13.93
2023-10-23T08:58:58.905Z,13.20
2023-10-23T09:01:26.271Z,13.85
2023-10-23T09:04:04.601Z,18.60
2023-10-23T09:06:33.457Z,15.27
2023-10-23T09:09:00.901Z,11.38
2023-10-23T09:11:39.830Z,10.80
2023-10-23T09:14:06.654Z,12.65
2023-10-23T09:16:33.977Z,10.82
2023-10-23T09:19:00.972Z,10.95
2023-10-23T09:21:28.057Z,9.75
2023-10-23T09:24:17.518Z,10.35
2023-10-23T09:26:45.500Z,9.82
2023-10-23T09:29:12.249Z,9.93
2023-10-23T09:31:42.041Z,10.13
2023-10-23T09:34:09.539Z,10.10
2023-10-23T09:36:36.296Z,9.07
2023-10-23T09:39:03.992Z,9.60
2023-10-23T09:41:31.518Z,10.93
2023-10-23T09:43:59.074Z,11.07
2023-10-23T09:46:27.313Z,11.07
2023-10-23T09:54:01.701Z,8.63
2023-10-23T09:56:32.936Z,8.23
2023-10-23T09:59:07.360Z,8.98
2023-10-23T10:01:42.198Z,8.52
2023-10-23T10:04:37.986Z,8.43
2023-10-23T10:07:30.401Z,8.40
2023-10-23T10:09:57.401Z,8.07
2023-10-23T10:12:27.638Z,5.63
2023-10-23T10:14:55.956Z,7.68
2023-10-23T10:20:10.948Z,6.75
2023-10-23T10:22:41.158Z,8.00
2023-10-23T10:25:10.937Z,6.22
2023-10-23T10:27:37.844Z,7.00
2023-10-23T10:30:06.980Z,7.47
2023-10-23T10:34:18.663Z,5.82
2023-10-23T10:35:41.540Z,6.30
2023-10-23T10:38:14.257Z,6.40
2023-10-23T10:41:00.812Z,6.32
2023-10-23T10:43:41.186Z,6.20
2023-10-23T10:46:27.499Z,6.60
2023-10-23T10:48:55.843Z,5.32
2023-10-23T10:51:23.868Z,5.03
2023-10-23T10:54:11.157Z,5.60
2023-10-23T10:56:38.217Z,6.70
2023-10-23T10:59:05.845Z,5.20
2023-10-23T11:01:33.270Z,5.95
2023-10-23T11:04:01.334Z,5.95
2023-10-23T11:06:28.228Z,6.38
2023-10-23T11:08:56.289Z,6.80
2023-10-23T11:11:23.062Z,7.18
2023-10-23T11:13:50.339Z,6.18
2023-10-23T11:16:17.378Z,5.50
2023-10-23T11:18:44.190Z,6.88
2023-10-23T11:21:11.364Z,6.25
2023-10-23T11:23:38.153Z,6.13
2023-10-23T11:26:05.121Z,5.18
2023-10-23T11:28:31.833Z,5.35
2023-10-23T11:31:01.132Z,6.20
2023-10-23T11:33:28.221Z,6.13
2023-10-23T11:35:55.064Z,5.80
2023-10-23T11:38:22.956Z,6.57
2023-10-23T11:40:49.746Z,5.13
2023-10-23T11:43:17.308Z,4.35
2023-10-23T11:45:46.474Z,6.88
2023-10-23T11:48:13.474Z,5.07
2023-10-23T11:50:43.747Z,5.45
2023-10-23T11:53:10.500Z,5.82
2023-10-23T11:55:38.793Z,5.68
2023-10-23T11:58:05.634Z,4.47
2023-10-23T12:00:38.711Z,3.97
2023-10-23T12:03:08.319Z,5.03
2023-10-23T12:05:35.076Z,4.95
2023-10-23T12:08:01.867Z,4.13
2023-10-23T12:10:29.194Z,4.70
2023-10-23T12:12:56.728Z,5.10
2023-10-23T12:15:28.677Z,5.82
2023-10-23T12:17:55.803Z,5.03
2023-10-23T12:20:23.614Z,4.85
2023-10-23T12:22:51.353Z,3.83
2023-10-23T12:25:18.590Z,4.75
2023-10-23T12:27:46.055Z,5.03
2023-10-23T12:30:16.561Z,5.10
2023-10-23T12:33:17.877Z,5.38
2023-10-23T12:35:37.599Z,5.50
2023-10-23T12:38:04.411Z,7.90
2023-10-23T12:40:33.420Z,7.90
2023-10-23T12:43:21.575Z,5.90
2023-10-23T12:45:48.534Z,6.32
2023-10-23T12:48:15.351Z,6.53
2023-10-23T12:50:42.118Z,5.85
2023-10-23T12:53:12.227Z,5.75
2023-10-23T12:55:39.286Z,5.45
2023-10-23T12:58:06.307Z,5.22
2023-10-23T13:00:33.256Z,6.03
2023-10-23T13:03:00.107Z,5.45
2023-10-23T13:05:26.927Z,5.15
2023-10-23T13:07:53.648Z,6.10
2023-10-23T13:10:20.394Z,3.50
2023-10-23T13:12:47.159Z,4.78
2023-10-23T13:15:13.880Z,6.22
2023-10-23T13:17:40.632Z,5.20
2023-10-23T13:21:28.835Z,5.78
2023-10-23T13:22:57.971Z,6.85
2023-10-23T13:25:24.764Z,7.82
2023-10-23T13:27:51.517Z,4.10
2023-10-23T13:30:18.316Z,5.28
2023-10-23T13:32:45.134Z,4.68
2023-10-23T13:35:15.764Z,3.83
2023-10-23T13:37:42.585Z,6.03
2023-10-23T13:40:09.583Z,5.07
2023-10-23T13:42:36.513Z,5.95
2023-10-23T13:45:03.700Z,5.20
2023-10-23T13:47:30.462Z,5.40
2023-10-23T13:49:59.306Z,5.88
2023-10-23T13:52:26.736Z,5.30
2023-10-23T13:54:53.552Z,6.40
2023-10-23T13:57:20.325Z,6.13
2023-10-23T13:59:48.354Z,5.53
2023-10-23T14:02:15.064Z,6.20
2023-10-23T14:04:42.328Z,6.57
2023-10-23T14:07:09.341Z,4.90
2023-10-23T14:09:40.507Z,6.55
2023-10-23T14:12:12.660Z,6.40
2023-10-23T14:14:39.530Z,6.93
2023-10-23T14:17:06.492Z,5.93
2023-10-23T14:19:45.430Z,4.13
2023-10-23T14:24:41.245Z,5.38
2023-10-23T14:27:08.250Z,6.03
2023-10-23T14:29:35.088Z,5.80
2023-10-23T14:32:02.196Z,6.10
2023-10-23T14:34:29.370Z,6.30
2023-10-23T14:36:56.705Z,4.95
2023-10-23T14:39:30.749Z,4.30
2023-10-23T14:41:57.605Z,6.35
2023-10-23T14:44:27.100Z,5.47
2023-10-23T14:46:54.029Z,3.92
2023-10-23T14:49:22.740Z,5.20
2023-10-23T14:51:52.003Z,5.93
2023-10-23T14:54:18.818Z,6.20
2023-10-23T14:56:46.155Z,5.53
2023-10-23T14:59:31.727Z,4.90
2023-10-23T15:02:00.036Z,5.13
2023-10-23T15:04:27.374Z,5.00
2023-10-23T15:06:54.129Z,6.95
2023-10-23T15:09:21.474Z,6.00
2023-10-23T15:11:48.968Z,5.55
2023-10-23T15:14:15.975Z,5.55
2023-10-23T15:16:42.782Z,6.35
2023-10-23T15:19:09.592Z,5.20
2023-10-23T15:21:36.336Z,6.47
2023-10-23T15:24:03.127Z,6.88
2023-10-23T15:26:29.905Z,5.60
2023-10-23T15:28:56.692Z,5.35
2023-10-23T15:31:24.608Z,5.25
2023-10-23T15:33:51.476Z,7.18
2023-10-23T15:36:18.629Z,7.10
2023-10-23T15:38:45.422Z,6.68
2023-10-23T15:41:13.198Z,7.25
2023-10-23T15:43:41.931Z,6.93
2023-10-23T15:46:13.485Z,12.77
2023-10-23T15:48:40.950Z,7.75
2023-10-23T15:51:07.661Z,7.32
2023-10-23T15:53:34.621Z,6.80
2023-10-23T15:56:01.913Z,7.90
2023-10-23T15:58:29.740Z,8.60
2023-10-23T16:00:57.823Z,7.18
2023-10-23T16:03:25.044Z,8.27
2023-10-23T16:05:53.625Z,8.07
2023-10-23T16:08:20.543Z,7.95
2023-10-23T16:10:49.791Z,8.40
2023-10-23T16:13:17.577Z,8.75
2023-10-23T16:15:44.775Z,8.68
2023-10-23T16:18:12.653Z,9.57
2023-10-23T16:20:40.021Z,9.60
2023-10-23T16:23:06.775Z,6.60
2023-10-23T16:25:38.374Z,6.88
2023-10-23T16:28:05.792Z,7.35
2023-10-23T16:30:32.723Z,7.50
2023-10-23T16:32:59.568Z,9.07
2023-10-23T16:35:26.410Z,8.82
2023-10-23T16:37:53.471Z,7.50
2023-10-23T16:40:20.492Z,8.88
2023-10-23T16:42:48.384Z,8.60
2023-10-23T16:45:15.468Z,8.70
2023-10-23T16:47:42.516Z,15.68
2023-10-23T16:50:09.963Z,10.20
2023-10-23T16:52:37.259Z,7.88
2023-10-23T16:55:06.072Z,7.13
2023-10-23T17:00:02.508Z,8.60
2023-10-23T17:02:29.350Z,7.43
2023-10-23T17:04:56.227Z,7.32
2023-10-23T17:07:23.038Z,7.60
2023-10-23T17:09:49.817Z,6.85
2023-10-23T17:12:16.687Z,7.47
2023-10-23T17:14:43.359Z,6.28
2023-10-23T17:17:10.184Z,7.35
2023-10-23T17:19:39.148Z,7.32
2023-10-23T17:22:06.013Z,8.80
2023-10-23T17:24:32.727Z,8.90
2023-10-23T17:26:59.683Z,9.32
2023-10-23T17:29:26.624Z,10.38
2023-10-23T17:31:53.831Z,12.10
2023-10-23T17:34:20.761Z,13.88
2023-10-23T17:36:47.498Z,10.52
2023-10-23T17:39:14.214Z,9.13
2023-10-23T17:41:40.996Z,8.00
2023-10-23T17:44:07.867Z,6.85
2023-10-23T17:46:36.591Z,9.65
2023-10-23T17:51:30.473Z,7.00
2023-10-23T17:54:04.975Z,8.27
2023-10-23T17:56:36.772Z,6.82
2023-10-23T17:59:04.288Z,8.73
2023-10-23T18:01:31.060Z,7.45
2023-10-23T18:03:58.015Z,8.32
2023-10-23T18:06:28.452Z,8.52
2023-10-23T18:08:55.208Z,6.93
2023-10-23T18:11:21.892Z,7.13
2023-10-23T18:13:49.290Z,6.32
2023-10-23T18:16:16.067Z,6.72
2023-10-23T18:18:42.850Z,7.15
2023-10-23T18:21:12.279Z,7.93
2023-10-23T18:23:39.357Z,4.70
2023-10-23T18:26:06.120Z,7.22
2023-10-23T18:28:33.031Z,7.05
2023-10-23T18:31:01.130Z,7.85
2023-10-23T18:33:27.981Z,12.63
2023-10-23T18:36:02.015Z,8.48
2023-10-23T18:38:29.209Z,9.82
2023-10-23T18:40:56.273Z,9.05
2023-10-23T18:43:26.013Z,7.63
2023-10-23T18:45:52.899Z,8.27
2023-10-23T18:48:19.844Z,7.65
2023-10-23T18:50:46.708Z,8.05
2023-10-23T18:53:13.422Z,8.07
2023-10-23T18:55:40.227Z,9.95
2023-10-23T18:58:07.115Z,8.50
2023-10-23T19:00:33.979Z,7.88
2023-10-23T19:03:00.780Z,8.75
2023-10-23T19:05:27.559Z,9.98
2023-10-23T19:07:54.290Z,9.80
2023-10-23T19:10:21.054Z,9.13
2023-10-23T19:12:47.994Z,9.23
2023-10-23T19:15:14.655Z,9.82
2023-10-23T19:17:41.732Z,9.05
2023-10-23T19:20:10.102Z,10.05
2023-10-23T19:22:38.843Z,10.93
2023-10-23T19:25:06.935Z,15.38
2023-10-23T19:27:34.192Z,13.38
2023-10-23T19:30:00.995Z,12.60
2023-10-23T19:32:28.008Z,12.88
2023-10-23T19:34:55.128Z,12.40
2023-10-23T19:37:22.067Z,16.42
2023-10-23T19:39:49.158Z,12.32
2023-10-23T19:42:18.057Z,13.70
2023-10-23T19:47:15.993Z,13.75
2023-10-23T19:49:44.222Z,12.18
2023-10-23T19:52:12.335Z,12.57
2023-10-23T19:54:43.564Z,13.75
2023-10-23T19:57:15.734Z,12.43
2023-10-23T19:59:44.220Z,11.07
2023-10-23T20:02:11.476Z,13.07
2023-10-23T20:04:38.683Z,17.23
2023-10-23T20:07:07.386Z,13.23
2023-10-23T20:09:34.180Z,14.00
2023-10-23T20:12:00.933Z,12.98
2023-10-23T20:14:27.677Z,13.63
2023-10-23T20:16:54.576Z,10.48
2023-10-23T20:19:21.374Z,11.25
2023-10-23T20:21:48.197Z,8.68
2023-10-23T20:24:15.894Z,7.93
2023-10-23T20:26:42.637Z,7.28
2023-10-23T20:29:09.378Z,6.82
2023-10-23T20:31:36.271Z,6.45
2023-10-23T20:34:04.960Z,6.32
2023-10-23T20:36:31.803Z,6.40
2023-10-23T20:38:58.521Z,9.30
2023-10-23T20:41:25.253Z,7.53
2023-10-23T20:43:52.114Z,6.82
2023-10-23T20:46:19.048Z,5.97
2023-10-23T20:48:46.063Z,6.13
2023-10-23T20:51:13.003Z,6.32
2023-10-23T20:53:39.786Z,7.13
2023-10-23T20:56:07.011Z,7.25
2023-10-23T20:58:34.557Z,8.88
2023-10-23T21:01:05.396Z,11.95
2023-10-23T21:03:32.324Z,6.95
2023-10-23T21:06:04.085Z,7.50
2023-10-23T21:08:30.980Z,9.18
2023-10-23T21:10:57.695Z,7.72
2023-10-23T21:13:24.470Z,8.20
2023-10-23T21:15:51.145Z,6.43
2023-10-23T21:18:18.436Z,10.23
2023-10-23T21:20:45.124Z,10.85
2023-10-23T21:23:11.902Z,10.98
2023-10-23T21:25:38.786Z,10.82
2023-10-23T21:28:05.870Z,11.73
2023-10-23T21:30:32.583Z,12.20
2023-10-23T21:32:59.370Z,12.73
2023-10-23T21:35:26.125Z,10.43
2023-10-23T21:37:52.918Z,10.05
2023-10-23T21:40:19.741Z,32.45
2023-10-23T21:42:46.570Z,11.20
2023-10-23T21:45:13.265Z,9.77
2023-10-23T21:47:40.050Z,10.02
2023-10-23T21:50:07.218Z,10.00
2023-10-23T21:52:34.344Z,9.65
2023-10-23T21:55:03.091Z,11.18
2023-10-23T21:57:46.541Z,9.50
2023-10-23T22:00:28.285Z,10.35
2023-10-23T22:02:57.352Z,7.93
2023-10-23T22:05:24.893Z,9.50
2023-10-23T22:07:52.486Z,9.25
2023-10-23T22:10:20.136Z,7.95
2023-10-23T22:12:47.445Z,9.35
2023-10-23T22:15:14.431Z,7.63
2023-10-23T22:17:41.315Z,8.43
2023-10-23T22:20:08.481Z,8.70
2023-10-23T22:22:35.218Z,9.38
2023-10-23T22:25:01.949Z,9.40
2023-10-23T22:27:28.897Z,9.00
2023-10-23T22:29:55.641Z,9.05
2023-10-23T22:32:22.342Z,9.88
2023-10-23T22:34:49.140Z,9.43
2023-10-23T22:37:58.140Z,9.90
2023-10-23T22:40:04.647Z,10.32
2023-10-23T22:42:31.464Z,9.82
2023-10-23T22:44:58.152Z,9.05
2023-10-23T22:47:25.054Z,10.40
2023-10-23T22:49:52.199Z,10.70
2023-10-23T22:52:19.517Z,8.80
2023-10-23T22:54:46.430Z,10.27
2023-10-23T22:57:13.712Z,10.35
2023-10-23T22:59:40.662Z,10.90
2023-10-23T23:02:07.965Z,10.38
2023-10-23T23:04:35.153Z,10.40
2023-10-23T23:07:03.511Z,9.60
2023-10-23T23:09:30.580Z,8.38
2023-10-23T23:11:57.563Z,8.40
2023-10-23T23:14:24.482Z,10.65
2023-10-23T23:16:51.381Z,9.88
2023-10-23T23:19:21.289Z,10.63
2023-10-23T23:21:52.674Z,9.65
2023-10-23T23:24:19.409Z,8.23
2023-10-23T23:26:46.110Z,10.23
2023-10-23T23:29:12.936Z,9.68
2023-10-23T23:31:39.683Z,10.02
2023-10-23T23:34:06.499Z,9.63
2023-10-23T23:36:33.233Z,14.02
2023-10-23T23:39:00.091Z,10.57
2023-10-23T23:41:26.756Z,12.93
2023-10-23T23:43:53.493Z,9.23
2023-10-23T23:46:20.268Z,10.15
2023-10-23T23:48:47.017Z,12.23
2023-10-23T23:51:13.717Z,9.57
2023-10-23T23:53:40.437Z,11.60
2023-10-23T23:56:07.352Z,10.07
2023-10-23T23:58:34.161Z,10.07
